createdAt,value
2018-09-20T00:00:13.963Z,4.2
2018-09-20T00:01:14.173Z,4.6
2018-09-20T00:02:13.829Z,4.5
2018-09-20T00:03:14.223Z,4.6
2018-09-20T00:04:14.208Z,4.6
2018-09-20T00:05:14.214Z,4.3
2018-09-20T00:06:14.262Z,4.4
2018-09-20T00:07:14.393Z,4.4
2018-09-20T00:08:14.256Z,4.4
2018-09-20T00:09:14.202Z,4.2
2018-09-20T00:10:14.150Z,4.9
2018-09-20T00:11:14.021Z,4.8
2018-09-20T00:12:13.841Z,4.5
2018-09-20T00:13:14.258Z,4.2
2018-09-20T00:14:14.018Z,4.5
2018-09-20T00:15:13.981Z,4.5
2018-09-20T00:16:14.249Z,4.4
2018-09-20T00:17:13.824Z,4.4
2018-09-20T00:18:13.974Z,4.1
2018-09-20T00:19:14.314Z,4.8
2018-09-20T00:20:13.781Z,4.0
2018-09-20T00:21:14.003Z,4.6
2018-09-20T00:22:14.281Z,4.2
2018-09-20T00:23:14.003Z,4.8
2018-09-20T00:24:14.289Z,4.4
2018-09-20T00:25:13.952Z,5.0
2018-09-20T00:26:14.374Z,4.4
2018-09-20T00:27:14.372Z,4.6
2018-09-20T00:28:14.297Z,4.4
2018-09-20T00:29:14.334Z,4.3
2018-09-20T00:30:14.022Z,4.3
2018-09-20T00:31:14.030Z,4.5
2018-09-20T00:32:14.046Z,4.2
2018-09-20T00:33:13.890Z,4.4
2018-09-20T00:34:14.316Z,4.5
2018-09-20T00:35:13.913Z,4.5
2018-09-20T00:36:13.997Z,3.9
2018-09-20T00:37:14.403Z,4.5
2018-09-20T00:38:13.816Z,4.1
2018-09-20T00:39:14.314Z,5.1
2018-09-20T00:40:14.268Z,4.5
2018-09-20T00:41:13.910Z,4.8
2018-09-20T00:42:14.285Z,4.4
2018-09-20T00:43:14.053Z,4.7
2018-09-20T00:44:14.362Z,4.4
2018-09-20T00:45:13.836Z,4.5
2018-09-20T00:46:14.054Z,4.0
2018-09-20T00:47:14.093Z,4.3
2018-09-20T00:48:14.048Z,4.7
2018-09-20T00:59:05.418Z,4.5
2018-09-20T01:00:06.074Z,4.2
2018-09-20T01:01:06.479Z,4.4
2018-09-20T01:02:06.191Z,4.4
2018-09-20T01:03:06.225Z,4.2
2018-09-20T01:04:06.588Z,4.1
2018-09-20T01:05:06.276Z,4.1
2018-09-20T01:06:06.558Z,4.4
2018-09-20T01:07:06.525Z,4.2
2018-09-20T01:08:06.600Z,4.2
2018-09-20T01:09:06.509Z,4.0
2018-09-20T01:10:06.389Z,4.4
2018-09-20T01:11:06.443Z,4.3
2018-09-20T01:12:06.496Z,4.1
2018-09-20T01:13:06.312Z,4.2
2018-09-20T01:14:06.261Z,4.6
2018-09-20T01:15:06.529Z,4.6
2018-09-20T01:16:06.075Z,4.0
2018-09-20T01:17:06.579Z,4.1
2018-09-20T01:18:07.026Z,4.2
2018-09-20T01:19:06.522Z,4.1
2018-09-20T01:20:06.641Z,4.5
2018-09-20T01:21:06.021Z,5.1
2018-09-20T01:22:06.271Z,4.4
2018-09-20T01:23:06.658Z,4.3
2018-09-20T01:24:06.270Z,4.3
2018-09-20T01:25:06.656Z,4.5
2018-09-20T01:26:06.292Z,4.3
2018-09-20T01:27:06.297Z,4.3
2018-09-20T01:37:58.475Z,4.7
2018-09-20T01:38:58.921Z,4.3
2018-09-20T01:39:59.467Z,4.4
2018-09-20T01:40:59.220Z,4.3
2018-09-20T01:41:59.505Z,4.0
2018-09-20T01:42:59.438Z,4.3
2018-09-20T01:43:59.179Z,4.2
2018-09-20T01:44:59.341Z,5.0
2018-09-20T01:45:59.007Z,4.7
2018-09-20T01:46:59.427Z,4.2
2018-09-20T01:48:02.623Z,4.4
2018-09-20T01:48:59.461Z,4.1
2018-09-20T01:49:59.513Z,3.8
2018-09-20T01:50:59.018Z,4.3
2018-09-20T01:51:59.487Z,4.3
2018-09-20T01:52:59.504Z,4.1
2018-09-20T01:53:59.178Z,4.4
2018-09-20T01:54:59.473Z,4.5
2018-09-20T01:55:59.515Z,4.2
2018-09-20T01:56:59.433Z,4.3
2018-09-20T02:07:46.542Z,4.2
2018-09-20T02:07:56.288Z,4.3
2018-09-20T02:08:56.671Z,3.9
2018-09-20T02:09:56.542Z,4.0
2018-09-20T02:10:56.783Z,4.1
2018-09-20T02:11:56.715Z,4.1
2018-09-20T02:12:56.263Z,4.2
2018-09-20T02:13:56.822Z,4.4
2018-09-20T02:14:56.379Z,4.0
2018-09-20T02:15:56.782Z,4.1
2018-09-20T02:16:56.789Z,5.2
2018-09-20T02:17:56.515Z,4.1
2018-09-20T02:18:56.585Z,4.1
2018-09-20T02:19:56.557Z,4.1
2018-09-20T02:20:56.609Z,3.8
2018-09-20T02:21:56.528Z,4.1
2018-09-20T02:22:56.508Z,4.2
2018-09-20T02:23:56.734Z,4.0
2018-09-20T02:24:57.321Z,4.0
2018-09-20T02:25:56.714Z,3.9
2018-09-20T02:26:56.812Z,4.1
2018-09-20T02:27:56.537Z,4.0
2018-09-20T02:28:56.308Z,4.8
2018-09-20T02:29:56.828Z,4.1
2018-09-20T02:30:56.844Z,4.4
2018-09-20T02:31:56.373Z,4.1
2018-09-20T02:32:56.814Z,4.0
2018-09-20T02:33:56.774Z,4.0
2018-09-20T02:35:49.096Z,4.0
2018-09-20T02:35:57.209Z,4.0
2018-09-20T02:36:56.770Z,4.5
2018-09-20T02:37:57.291Z,4.2
2018-09-20T02:38:56.979Z,7.4
2018-09-20T02:39:57.300Z,4.4
2018-09-20T02:40:57.336Z,4.4
2018-09-20T02:41:56.963Z,4.2
2018-09-20T02:42:57.198Z,4.5
2018-09-20T02:43:56.813Z,4.2
2018-09-20T02:44:57.372Z,4.0
2018-09-20T02:47:10.198Z,4.1
2018-09-20T02:48:10.160Z,5.6
2018-09-20T02:49:10.424Z,3.9
2018-09-20T02:50:10.031Z,4.3
2018-09-20T02:51:09.962Z,4.1
2018-09-20T02:52:09.963Z,4.0
2018-09-20T02:53:10.190Z,4.2
2018-09-20T02:54:10.509Z,4.2
2018-09-20T02:55:10.551Z,4.4
2018-09-20T02:56:10.048Z,4.1
2018-09-20T02:57:11.438Z,4.1
2018-09-20T02:58:10.005Z,4.1
2018-09-20T02:59:10.461Z,3.9
2018-09-20T03:00:10.392Z,4.8
2018-09-20T03:01:10.436Z,4.0
2018-09-20T03:02:10.023Z,3.9
2018-09-20T03:03:10.391Z,4.0
2018-09-20T03:04:10.024Z,4.3
2018-09-20T03:05:10.462Z,3.8
2018-09-20T03:06:10.527Z,3.7
2018-09-20T03:07:10.042Z,4.2
2018-09-20T03:08:10.196Z,4.1
2018-09-20T03:09:10.391Z,4.1
2018-09-20T03:10:10.472Z,4.0
2018-09-20T03:11:10.509Z,4.1
2018-09-20T03:12:10.422Z,4.5
2018-09-20T03:13:10.246Z,3.7
2018-09-20T03:14:10.506Z,4.1
2018-09-20T03:15:10.277Z,4.3
2018-09-20T03:16:10.440Z,4.2
2018-09-20T03:17:10.083Z,4.3
2018-09-20T03:18:10.289Z,4.2
2018-09-20T03:19:10.112Z,4.0
2018-09-20T03:20:10.300Z,4.0
2018-09-20T03:21:10.117Z,4.2
2018-09-20T03:22:10.545Z,4.2
2018-09-20T03:23:10.119Z,4.3
2018-09-20T03:24:10.673Z,4.1
2018-09-20T03:25:10.808Z,4.1
2018-09-20T03:26:10.516Z,4.2
2018-09-20T03:27:10.299Z,4.3
2018-09-20T03:28:10.662Z,3.9
2018-09-20T03:29:10.105Z,3.9
2018-09-20T03:30:10.566Z,4.3
2018-09-20T03:31:10.599Z,4.4
2018-09-20T03:32:10.560Z,4.2
2018-09-20T03:33:10.593Z,4.4
2018-09-20T03:34:10.644Z,4.4
2018-09-20T03:35:38.795Z,4.2
2018-09-20T03:36:10.458Z,3.8
2018-09-20T03:37:10.500Z,4.2
2018-09-20T03:38:10.267Z,4.4
2018-09-20T03:39:10.514Z,5.0
2018-09-20T03:40:10.318Z,5.3
2018-09-20T03:41:10.406Z,4.0
2018-09-20T03:42:10.128Z,4.3
2018-09-20T03:43:10.591Z,4.1
2018-09-20T03:44:10.505Z,4.2
2018-09-20T03:45:10.563Z,4.7
2018-09-20T03:47:23.115Z,4.3
2018-09-20T03:48:23.307Z,4.2
2018-09-20T03:49:23.250Z,4.5
2018-09-20T03:50:23.004Z,5.0
2018-09-20T03:51:23.490Z,4.2
2018-09-20T03:52:23.155Z,4.5
2018-09-20T03:53:23.355Z,3.9
2018-09-20T03:54:23.153Z,4.4
2018-09-20T03:55:23.330Z,4.7
2018-09-20T03:56:23.409Z,4.5
2018-09-20T03:58:16.237Z,3.9
2018-09-20T03:58:24.077Z,4.1
2018-09-20T03:59:24.178Z,4.5
2018-09-20T04:00:24.461Z,4.2
2018-09-20T04:01:24.291Z,6.4
2018-09-20T04:02:24.513Z,4.6
2018-09-20T04:03:24.116Z,4.0
2018-09-20T04:04:24.354Z,4.1
2018-09-20T04:05:24.161Z,4.4
2018-09-20T04:06:24.180Z,4.1
2018-09-20T04:07:24.461Z,4.7
2018-09-20T04:08:24.545Z,4.0
2018-09-20T04:09:24.468Z,3.9
2018-09-20T04:10:24.023Z,3.9
2018-09-20T04:11:24.449Z,4.4
2018-09-20T04:12:23.902Z,4.2
2018-09-20T04:13:24.331Z,3.8
2018-09-20T04:14:25.289Z,3.9
2018-09-20T04:15:24.225Z,3.9
2018-09-20T04:16:24.225Z,4.1
2018-09-20T04:17:23.939Z,4.0
2018-09-20T04:19:17.175Z,4.3
2018-09-20T04:19:25.079Z,3.9
2018-09-20T04:20:25.377Z,4.4
2018-09-20T04:21:24.801Z,3.9
2018-09-20T04:22:25.043Z,4.0
2018-09-20T04:23:25.431Z,3.9
2018-09-20T04:24:25.334Z,4.2
2018-09-20T04:25:25.315Z,3.9
2018-09-20T04:26:24.821Z,3.7
2018-09-20T04:27:25.095Z,3.8
2018-09-20T04:28:25.285Z,4.2
2018-09-20T04:30:38.004Z,4.9
2018-09-20T04:31:38.229Z,4.2
2018-09-20T04:32:38.622Z,3.7
2018-09-20T04:33:38.199Z,3.9
2018-09-20T04:34:38.250Z,4.3
2018-09-20T04:35:38.239Z,9.1
2018-09-20T04:36:38.277Z,7.6
2018-09-20T04:37:37.830Z,7.3
2018-09-20T04:38:37.889Z,7.6
2018-09-20T04:39:38.152Z,5.6
2018-09-20T04:40:38.877Z,4.1
2018-09-20T04:41:38.317Z,3.9
2018-09-20T04:42:38.935Z,7.8
2018-09-20T04:43:38.340Z,16.1
2018-09-20T04:44:38.001Z,11.4
2018-09-20T04:45:38.298Z,8.0
2018-09-20T04:46:37.781Z,10.5
2018-09-20T04:47:37.811Z,9.5
2018-09-20T04:48:38.400Z,10.4
2018-09-20T04:49:38.078Z,12.3
2018-09-20T04:50:38.317Z,12.8
2018-09-20T04:51:37.822Z,11.3
2018-09-20T04:52:38.288Z,11.8
2018-09-20T04:53:38.007Z,9.4
2018-09-20T04:54:38.381Z,6.6
2018-09-20T04:55:38.221Z,7.1
2018-09-20T04:56:38.353Z,7.8
2018-09-20T04:57:37.828Z,5.9
2018-09-20T04:58:37.976Z,6.2
2018-09-20T05:06:10.477Z,5.9
2018-09-20T05:06:23.741Z,8.8
2018-09-20T05:07:24.874Z,5.4
2018-09-20T05:08:24.901Z,6.4
2018-09-20T05:09:24.496Z,6.0
2018-09-20T05:10:24.623Z,7.3
2018-09-20T05:11:24.654Z,6.9
2018-09-20T05:12:24.789Z,7.2
2018-09-20T05:13:24.964Z,6.5
2018-09-20T05:15:25.747Z,7.5
2018-09-20T05:16:24.916Z,6.3
2018-09-20T05:17:24.803Z,5.3
2018-09-20T05:18:24.571Z,5.2
2018-09-20T05:19:24.431Z,5.8
2018-09-20T05:20:24.979Z,4.7
2018-09-20T05:21:24.607Z,6.1
2018-09-20T05:22:26.470Z,4.8
2018-09-20T05:23:24.726Z,6.1
2018-09-20T05:24:24.408Z,4.5
2018-09-20T05:25:24.450Z,7.1
2018-09-20T05:26:24.670Z,7.9
2018-09-20T05:27:24.817Z,5.9
2018-09-20T05:28:24.608Z,7.3
2018-09-20T05:29:24.792Z,5.5
2018-09-20T05:30:24.926Z,7.0
2018-09-20T05:31:24.825Z,4.8
2018-09-20T05:32:24.611Z,5.9
2018-09-20T05:33:24.983Z,6.5
2018-09-20T05:34:25.024Z,7.5
2018-09-20T05:35:24.775Z,6.9
2018-09-20T05:36:24.467Z,7.1
2018-09-20T05:37:24.814Z,7.0
2018-09-20T05:38:24.916Z,6.5
2018-09-20T05:39:24.699Z,6.1
2018-09-20T05:40:24.838Z,16.3
2018-09-20T05:41:24.484Z,10.5
2018-09-20T05:43:17.684Z,10.0
2018-09-20T05:43:25.433Z,13.9
2018-09-20T05:44:25.340Z,13.1
2018-09-20T05:45:25.774Z,9.0
2018-09-20T05:46:25.416Z,10.3
2018-09-20T05:47:25.578Z,10.9
2018-09-20T05:48:25.841Z,8.9
2018-09-20T05:49:25.383Z,9.5
2018-09-20T05:50:25.343Z,9.6
2018-09-20T05:51:25.860Z,10.4
2018-09-20T05:52:25.614Z,8.5
2018-09-20T05:53:25.593Z,7.7
2018-09-20T05:54:25.375Z,5.6
2018-09-20T05:55:25.475Z,8.1
2018-09-20T05:56:25.378Z,7.6
2018-09-20T05:57:25.834Z,7.8
2018-09-20T05:58:25.885Z,5.3
2018-09-20T05:59:25.970Z,6.3
2018-09-20T06:00:25.803Z,5.7
2018-09-20T06:01:54.105Z,6.8
2018-09-20T06:02:25.512Z,5.0
2018-09-20T06:03:25.396Z,4.6
2018-09-20T06:04:25.790Z,7.1
2018-09-20T06:05:25.621Z,6.4
2018-09-20T06:06:25.868Z,6.8
2018-09-20T06:07:25.834Z,5.0
2018-09-20T06:08:25.415Z,4.1
2018-09-20T06:09:25.841Z,4.7
2018-09-20T06:10:25.421Z,5.9
2018-09-20T06:11:25.847Z,4.7
2018-09-20T06:12:26.216Z,8.3
2018-09-20T06:13:25.933Z,4.2
2018-09-20T06:14:25.910Z,5.7
2018-09-20T06:15:25.624Z,4.8
2018-09-20T06:16:25.536Z,5.8
2018-09-20T06:17:25.678Z,4.4
2018-09-20T06:18:25.860Z,5.6
2018-09-20T06:19:25.547Z,5.3
2018-09-20T06:20:25.933Z,5.4
2018-09-20T06:21:25.460Z,5.4
2018-09-20T06:22:25.872Z,4.2
2018-09-20T06:23:25.458Z,5.2
2018-09-20T06:24:25.543Z,5.9
2018-09-20T06:25:25.487Z,4.2
2018-09-20T06:26:25.693Z,5.5
2018-09-20T06:27:25.426Z,6.2
2018-09-20T06:28:25.716Z,4.4
2018-09-20T06:29:25.981Z,5.0
2018-09-20T06:30:25.941Z,6.1
2018-09-20T06:31:26.448Z,4.2
2018-09-20T06:32:25.688Z,4.3
2018-09-20T06:33:25.417Z,4.4
2018-09-20T06:34:25.641Z,5.4
2018-09-20T06:35:25.931Z,6.3
2018-09-20T06:36:25.940Z,5.8
2018-09-20T06:37:25.485Z,5.3
2018-09-20T06:38:25.465Z,5.6
2018-09-20T06:39:25.970Z,4.7
2018-09-20T06:40:25.659Z,4.7
2018-09-20T06:41:28.216Z,5.5
2018-09-20T06:42:25.920Z,4.7
2018-09-20T06:43:25.917Z,4.5
2018-09-20T06:44:26.009Z,6.5
2018-09-20T06:45:25.946Z,4.3
2018-09-20T06:46:25.699Z,5.3
2018-09-20T06:47:26.021Z,4.3
2018-09-20T06:48:25.932Z,4.2
2018-09-20T06:49:25.513Z,4.4
2018-09-20T06:50:25.949Z,6.0
2018-09-20T06:51:26.593Z,4.4
2018-09-20T06:52:26.011Z,4.6
2018-09-20T06:53:25.958Z,4.4
2018-09-20T06:54:25.751Z,4.8
2018-09-20T06:55:25.997Z,5.7
2018-09-20T06:56:25.733Z,5.4
2018-09-20T06:57:25.548Z,4.4
2018-09-20T06:58:25.476Z,4.7
2018-09-20T06:59:25.929Z,4.7
2018-09-20T07:00:26.007Z,4.8
2018-09-20T07:01:26.619Z,5.5
2018-09-20T07:02:25.995Z,4.4
2018-09-20T07:03:25.860Z,4.3
2018-09-20T07:04:25.750Z,4.6
2018-09-20T07:05:25.521Z,4.9
2018-09-20T07:06:25.554Z,4.7
2018-09-20T07:07:25.577Z,4.6
2018-09-20T07:08:26.035Z,4.6
2018-09-20T07:09:25.505Z,4.6
2018-09-20T07:10:26.025Z,4.8
2018-09-20T07:11:26.241Z,4.3
2018-09-20T07:12:25.707Z,4.7
2018-09-20T07:13:25.795Z,4.4
2018-09-20T07:14:25.934Z,4.7
2018-09-20T07:15:25.989Z,4.5
2018-09-20T07:16:26.006Z,5.2
2018-09-20T07:17:26.125Z,4.7
2018-09-20T07:18:25.531Z,4.6
2018-09-20T07:19:26.093Z,6.3
2018-09-20T07:20:25.742Z,5.3
2018-09-20T07:21:25.746Z,5.7
2018-09-20T07:22:26.038Z,5.1
2018-09-20T07:23:26.086Z,4.9
2018-09-20T07:24:25.956Z,5.4
2018-09-20T07:25:25.860Z,5.1
2018-09-20T07:26:26.068Z,4.9
2018-09-20T07:27:25.999Z,4.6
2018-09-20T07:28:26.072Z,4.9
2018-09-20T07:29:26.759Z,4.9
2018-09-20T07:30:25.806Z,6.5
2018-09-20T07:31:25.777Z,4.9
2018-09-20T07:32:25.765Z,5.2
2018-09-20T07:33:26.082Z,5.4
2018-09-20T07:34:25.808Z,5.8
2018-09-20T07:35:26.088Z,4.9
2018-09-20T07:36:26.141Z,5.2
2018-09-20T07:37:25.572Z,4.9
2018-09-20T07:38:26.098Z,4.8
2018-09-20T07:39:25.568Z,4.7
2018-09-20T07:40:25.994Z,6.3
2018-09-20T07:41:26.091Z,4.7
2018-09-20T07:42:25.574Z,5.0
2018-09-20T07:43:26.127Z,5.1
2018-09-20T07:44:26.114Z,5.0
2018-09-20T07:45:25.808Z,4.5
2018-09-20T07:46:25.694Z,4.8
2018-09-20T07:47:25.992Z,5.2
2018-09-20T07:48:26.085Z,4.8
2018-09-20T07:49:25.650Z,4.9
2018-09-20T07:50:26.075Z,5.2
2018-09-20T07:51:25.838Z,4.7
2018-09-20T07:52:25.791Z,4.8
2018-09-20T07:53:25.835Z,5.3
2018-09-20T07:54:26.163Z,4.9
2018-09-20T07:55:25.639Z,5.4
2018-09-20T07:56:25.854Z,4.9
2018-09-20T07:57:26.077Z,5.1
2018-09-20T07:58:25.656Z,4.8
2018-09-20T07:59:26.627Z,5.4
2018-09-20T08:00:25.849Z,4.8
2018-09-20T08:01:25.876Z,4.7
2018-09-20T08:02:26.169Z,5.1
2018-09-20T08:03:25.866Z,4.9
2018-09-20T08:04:25.663Z,5.0
2018-09-20T08:05:26.115Z,4.6
2018-09-20T08:06:26.125Z,5.3
2018-09-20T08:07:25.869Z,5.2
2018-09-20T08:08:25.866Z,5.3
2018-09-20T08:09:25.844Z,4.9
2018-09-20T08:10:26.199Z,4.9
2018-09-20T08:11:26.120Z,5.0
2018-09-20T08:12:25.882Z,4.7
2018-09-20T08:13:26.076Z,5.3
2018-09-20T08:14:26.068Z,5.8
2018-09-20T08:15:26.206Z,5.1
2018-09-20T08:16:25.645Z,4.6
2018-09-20T08:17:26.165Z,4.9
2018-09-20T08:18:26.568Z,4.9
2018-09-20T08:19:26.174Z,4.7
2018-09-20T08:20:26.212Z,4.6
2018-09-20T08:21:25.806Z,4.3
2018-09-20T08:22:25.717Z,4.6
2018-09-20T08:23:26.029Z,4.6
2018-09-20T08:24:25.957Z,4.5
2018-09-20T08:25:25.717Z,4.8
2018-09-20T08:26:25.907Z,5.1
2018-09-20T08:27:25.923Z,4.7
2018-09-20T08:28:26.074Z,4.6
2018-09-20T08:29:26.084Z,5.1
2018-09-20T08:30:26.101Z,4.7
2018-09-20T08:31:25.923Z,4.5
2018-09-20T08:32:26.190Z,4.9
2018-09-20T08:33:25.684Z,5.2
2018-09-20T08:34:26.175Z,4.9
2018-09-20T08:35:26.191Z,4.9
2018-09-20T08:36:26.154Z,5.0
2018-09-20T08:37:26.059Z,5.1
2018-09-20T08:38:25.967Z,4.6
2018-09-20T08:39:26.101Z,4.9
2018-09-20T08:40:26.129Z,4.8
2018-09-20T08:41:25.926Z,4.7
2018-09-20T08:42:26.203Z,4.6
2018-09-20T08:43:26.169Z,4.6
2018-09-20T08:44:25.909Z,5.0
2018-09-20T08:45:25.721Z,4.7
2018-09-20T08:46:26.187Z,4.5
2018-09-20T08:47:26.158Z,4.8
2018-09-20T08:48:25.893Z,4.7
2018-09-20T08:49:26.115Z,4.8
2018-09-20T08:50:26.090Z,4.8
2018-09-20T08:51:25.688Z,4.5
2018-09-20T08:52:42.422Z,4.7
2018-09-20T08:53:25.905Z,4.7
2018-09-20T08:54:25.930Z,4.5
2018-09-20T08:55:25.677Z,4.8
2018-09-20T08:56:26.112Z,4.5
2018-09-20T08:57:26.013Z,4.5
2018-09-20T08:58:25.728Z,4.5
2018-09-20T08:59:26.008Z,6.0
2018-09-20T09:00:26.184Z,4.8
2018-09-20T09:01:25.802Z,4.2
2018-09-20T09:04:30.930Z,4.8
2018-09-20T09:05:30.620Z,4.7
2018-09-20T09:06:30.418Z,4.4
2018-09-20T09:07:30.686Z,4.6
2018-09-20T09:08:30.714Z,4.4
2018-09-20T09:09:30.672Z,4.2
2018-09-20T09:10:30.925Z,4.5
2018-09-20T09:11:30.866Z,4.6
2018-09-20T09:12:30.623Z,4.6
2018-09-20T09:13:30.437Z,4.6
2018-09-20T09:15:43.046Z,4.7
2018-09-20T09:16:43.560Z,4.6
2018-09-20T09:17:43.514Z,4.5
2018-09-20T09:18:43.563Z,4.5
2018-09-20T09:19:43.593Z,4.3
2018-09-20T09:20:43.113Z,4.4
2018-09-20T09:21:43.599Z,4.5
2018-09-20T09:22:43.488Z,4.4
2018-09-20T09:23:43.561Z,4.7
2018-09-20T09:24:43.116Z,4.3
2018-09-20T09:25:45.712Z,4.6
2018-09-20T09:26:43.409Z,4.3
2018-09-20T09:27:43.556Z,4.5
2018-09-20T09:28:43.191Z,4.4
2018-09-20T09:29:43.495Z,4.7
2018-09-20T09:30:43.646Z,4.7
2018-09-20T09:31:43.146Z,4.2
2018-09-20T09:32:43.174Z,4.0
2018-09-20T09:33:43.397Z,4.1
2018-09-20T09:34:43.609Z,4.5
2018-09-20T09:35:43.612Z,4.2
2018-09-20T09:36:43.630Z,4.5
2018-09-20T09:37:43.157Z,4.3
2018-09-20T09:38:43.625Z,4.4
2018-09-20T09:39:43.592Z,4.6
2018-09-20T09:40:43.621Z,4.2
2018-09-20T09:41:43.534Z,4.5
2018-09-20T09:42:43.421Z,4.7
2018-09-20T09:43:46.681Z,4.1
2018-09-20T09:44:43.596Z,4.3
2018-09-20T09:45:43.132Z,4.3
2018-09-20T09:46:43.559Z,4.5
2018-09-20T09:47:43.633Z,4.0
2018-09-20T09:48:43.438Z,4.5
2018-09-20T09:49:43.664Z,4.3
2018-09-20T09:50:43.419Z,4.1
2018-09-20T09:51:43.597Z,4.1
2018-09-20T09:52:43.648Z,4.4
2018-09-20T09:53:43.616Z,4.3
2018-09-20T09:54:43.637Z,4.3
2018-09-20T09:55:43.681Z,4.3
2018-09-20T09:56:43.527Z,4.3
2018-09-20T09:57:43.137Z,4.4
2018-09-20T09:58:43.562Z,4.3
2018-09-20T09:59:43.513Z,4.4
2018-09-20T10:00:43.399Z,4.2
2018-09-20T10:01:43.688Z,4.5
2018-09-20T10:02:43.233Z,4.2
2018-09-20T10:03:43.573Z,4.3
2018-09-20T10:04:43.595Z,4.3
2018-09-20T10:05:43.438Z,4.3
2018-09-20T10:06:43.585Z,4.2
2018-09-20T10:07:43.676Z,4.5
2018-09-20T10:08:43.672Z,4.5
2018-09-20T10:09:43.980Z,4.4
2018-09-20T10:10:43.602Z,4.2
2018-09-20T10:11:43.417Z,4.4
2018-09-20T10:12:43.597Z,4.3
2018-09-20T10:13:43.687Z,4.4
2018-09-20T10:14:43.612Z,4.3
2018-09-20T10:15:43.211Z,4.5
2018-09-20T10:16:43.618Z,4.5
2018-09-20T10:17:43.605Z,4.0
2018-09-20T10:18:43.683Z,4.2
2018-09-20T10:19:43.186Z,4.1
2018-09-20T10:20:43.203Z,4.1
2018-09-20T10:21:43.234Z,4.4
2018-09-20T10:22:43.207Z,4.3
2018-09-20T10:23:43.417Z,4.3
2018-09-20T10:24:43.644Z,4.2
2018-09-20T10:25:43.725Z,4.2
2018-09-20T10:26:43.432Z,4.0
2018-09-20T10:27:43.610Z,4.1
2018-09-20T10:28:43.245Z,4.1
2018-09-20T10:29:53.397Z,4.1
2018-09-20T10:30:43.249Z,4.1
2018-09-20T10:31:43.618Z,4.3
2018-09-20T10:32:43.415Z,4.6
2018-09-20T10:33:43.765Z,4.4
2018-09-20T10:34:43.480Z,4.5
2018-09-20T10:35:43.677Z,4.3
2018-09-20T10:36:43.667Z,4.4
2018-09-20T10:37:43.471Z,4.2
2018-09-20T10:38:43.435Z,3.9
2018-09-20T10:39:43.258Z,4.1
2018-09-20T10:40:43.241Z,4.2
2018-09-20T10:41:43.773Z,4.2
2018-09-20T10:42:43.460Z,4.1
2018-09-20T10:43:43.826Z,4.6
2018-09-20T10:44:43.303Z,4.1
2018-09-20T10:45:43.802Z,4.1
2018-09-20T10:46:43.475Z,4.1
2018-09-20T10:47:43.679Z,4.3
2018-09-20T10:48:43.239Z,4.3
2018-09-20T10:49:43.806Z,4.2
2018-09-20T10:50:43.255Z,4.3
2018-09-20T10:51:43.519Z,3.9
2018-09-20T10:52:43.774Z,4.2
2018-09-20T10:53:43.488Z,4.2
2018-09-20T10:54:43.375Z,4.4
2018-09-20T10:55:43.337Z,4.4
2018-09-20T10:56:53.701Z,4.4
2018-09-20T10:57:43.454Z,4.3
2018-09-20T10:58:43.733Z,4.2
2018-09-20T10:59:43.332Z,4.4
2018-09-20T11:00:43.349Z,4.4
2018-09-20T11:01:43.504Z,5.0
2018-09-20T11:02:43.320Z,4.3
2018-09-20T11:03:43.475Z,4.4
2018-09-20T11:04:43.298Z,4.1
2018-09-20T11:05:43.680Z,4.5
2018-09-20T11:06:43.780Z,4.4
2018-09-20T11:07:43.788Z,4.5
2018-09-20T11:08:43.757Z,4.8
2018-09-20T11:09:43.284Z,4.7
2018-09-20T11:10:43.802Z,4.4
2018-09-20T11:11:43.506Z,4.3
2018-09-20T11:12:43.296Z,4.4
2018-09-20T11:13:43.786Z,4.5
2018-09-20T11:17:05.279Z,4.6
2018-09-20T11:18:06.237Z,4.8
2018-09-20T11:19:06.526Z,4.4
2018-09-20T11:20:06.498Z,4.7
2018-09-20T11:21:06.459Z,4.6
2018-09-20T11:22:06.237Z,4.1
2018-09-20T11:23:06.298Z,4.3
2018-09-20T11:24:06.091Z,4.4
2018-09-20T11:25:06.588Z,4.5
2018-09-20T11:26:06.138Z,4.1
2018-09-20T11:27:06.334Z,4.6
2018-09-20T11:28:06.548Z,5.0
2018-09-20T11:29:06.590Z,4.5
2018-09-20T11:30:06.115Z,4.5
2018-09-20T11:31:06.550Z,4.3
2018-09-20T11:32:06.346Z,4.4
2018-09-20T11:33:06.342Z,4.4
2018-09-20T11:34:06.507Z,4.4
2018-09-20T11:35:06.554Z,4.6
2018-09-20T11:36:06.678Z,4.6
2018-09-20T11:37:06.121Z,4.3
2018-09-20T11:38:06.511Z,4.8
2018-09-20T11:39:06.569Z,4.4
2018-09-20T11:40:06.135Z,4.6
2018-09-20T11:41:06.527Z,4.5
2018-09-20T11:42:06.627Z,4.9
2018-09-20T11:43:06.532Z,5.0
2018-09-20T11:44:07.217Z,4.9
2018-09-20T11:45:06.378Z,4.5
2018-09-20T11:46:06.178Z,4.4
2018-09-20T11:47:06.124Z,4.7
2018-09-20T11:48:06.316Z,4.8
2018-09-20T11:49:06.519Z,5.2
2018-09-20T11:50:06.624Z,4.7
2018-09-20T11:51:06.313Z,4.6
2018-09-20T11:52:06.508Z,4.5
2018-09-20T11:53:06.668Z,4.7
2018-09-20T11:54:07.089Z,4.8
2018-09-20T11:55:06.638Z,5.1
2018-09-20T11:56:06.193Z,5.0
2018-09-20T11:57:06.644Z,5.0
2018-09-20T11:58:06.314Z,4.6
2018-09-20T11:59:06.552Z,4.8
2018-09-20T12:00:06.585Z,4.8
2018-09-20T12:01:06.607Z,4.5
2018-09-20T12:02:06.386Z,4.7
2018-09-20T12:03:06.597Z,4.7
2018-09-20T12:04:06.598Z,5.0
2018-09-20T12:05:06.532Z,4.6
2018-09-20T12:06:06.760Z,4.9
2018-09-20T12:07:06.697Z,5.0
2018-09-20T12:08:06.443Z,4.7
2018-09-20T12:09:06.632Z,4.9
2018-09-20T12:10:06.215Z,5.2
2018-09-20T12:11:06.163Z,5.0
2018-09-20T12:12:06.358Z,4.7
2018-09-20T12:13:06.179Z,4.5
2018-09-20T12:14:08.511Z,4.9
2018-09-20T12:15:06.186Z,5.1
2018-09-20T12:16:06.201Z,5.2
2018-09-20T12:17:06.203Z,5.2
2018-09-20T12:18:06.719Z,4.4
2018-09-20T12:19:06.365Z,4.9
2018-09-20T12:20:06.507Z,4.9
2018-09-20T12:21:06.132Z,4.6
2018-09-20T12:22:06.588Z,4.9
2018-09-20T12:23:06.641Z,5.0
2018-09-20T12:24:06.927Z,4.7
2018-09-20T12:25:06.217Z,5.1
2018-09-20T12:26:06.241Z,4.8
2018-09-20T12:27:06.712Z,4.8
2018-09-20T12:28:06.613Z,4.7
2018-09-20T12:29:06.722Z,4.9
2018-09-20T12:30:06.591Z,4.7
2018-09-20T12:31:06.558Z,4.8
2018-09-20T12:32:06.251Z,4.8
2018-09-20T12:33:06.620Z,4.8
2018-09-20T12:34:06.189Z,4.4
2018-09-20T12:35:06.629Z,4.7
2018-09-20T12:36:06.225Z,4.6
2018-09-20T12:37:06.595Z,4.4
2018-09-20T12:38:06.688Z,4.8
2018-09-20T12:39:06.593Z,4.9
2018-09-20T12:40:06.656Z,4.2
2018-09-20T12:41:06.587Z,4.6
2018-09-20T12:42:06.719Z,5.1
2018-09-20T12:43:06.689Z,4.7
2018-09-20T12:44:06.193Z,4.7
2018-09-20T12:45:06.224Z,4.6
2018-09-20T12:46:06.438Z,4.8
2018-09-20T12:47:06.611Z,4.6
2018-09-20T12:48:06.813Z,4.7
2018-09-20T12:49:06.224Z,4.3
2018-09-20T12:50:06.477Z,4.8
2018-09-20T12:51:06.258Z,4.2
2018-09-20T12:52:06.684Z,4.4
2018-09-20T12:53:06.718Z,5.0
2018-09-20T12:54:06.463Z,4.5
2018-09-20T12:55:06.444Z,4.7
2018-09-20T12:56:06.258Z,4.4
2018-09-20T12:57:06.627Z,5.1
2018-09-20T12:58:06.725Z,4.9
2018-09-20T12:59:06.233Z,4.6
2018-09-20T13:00:06.511Z,4.9
2018-09-20T13:01:06.237Z,4.7
2018-09-20T13:02:06.747Z,4.8
2018-09-20T13:03:06.331Z,4.9
2018-09-20T13:04:06.737Z,4.4
2018-09-20T13:05:06.470Z,4.9
2018-09-20T13:06:06.736Z,4.2
2018-09-20T13:07:06.241Z,4.8
2018-09-20T13:08:06.265Z,4.4
2018-09-20T13:09:07.304Z,5.2
2018-09-20T13:10:06.307Z,4.7
2018-09-20T13:11:06.741Z,4.1
2018-09-20T13:12:06.444Z,4.5
2018-09-20T13:13:06.782Z,4.6
2018-09-20T13:14:06.275Z,4.7
2018-09-20T13:15:06.790Z,4.7
2018-09-20T13:16:06.251Z,4.3
2018-09-20T13:17:06.331Z,4.6
2018-09-20T13:18:06.321Z,4.5
2018-09-20T13:19:06.297Z,4.7
2018-09-20T13:20:06.366Z,4.6
2018-09-20T13:21:06.523Z,4.4
2018-09-20T13:22:06.771Z,4.7
2018-09-20T13:23:06.774Z,4.3
2018-09-20T13:24:06.483Z,4.5
2018-09-20T13:25:06.361Z,4.6
2018-09-20T13:26:06.266Z,4.8
2018-09-20T13:27:06.721Z,4.4
2018-09-20T13:28:35.148Z,4.7
2018-09-20T13:29:06.492Z,4.7
2018-09-20T13:30:07.096Z,4.8
2018-09-20T13:31:06.516Z,4.3
2018-09-20T13:32:06.732Z,4.5
2018-09-20T13:33:06.279Z,4.5
2018-09-20T13:34:06.697Z,4.7
2018-09-20T13:35:06.807Z,4.5
2018-09-20T13:36:06.496Z,4.4
2018-09-20T13:37:06.748Z,4.6
2018-09-20T13:38:06.803Z,4.6
2018-09-20T13:40:18.939Z,4.4
2018-09-20T13:41:19.534Z,5.0
2018-09-20T13:42:18.997Z,4.8
2018-09-20T13:43:19.185Z,4.6
2018-09-20T13:44:19.409Z,4.5
2018-09-20T13:45:19.422Z,4.6
2018-09-20T13:46:19.402Z,4.3
2018-09-20T13:47:19.485Z,4.6
2018-09-20T13:48:19.002Z,4.4
2018-09-20T13:49:19.215Z,4.2
2018-09-20T13:52:00.639Z,5.0
2018-09-20T13:52:10.873Z,4.6
2018-09-20T13:53:10.787Z,4.4
2018-09-20T13:54:10.552Z,4.8
2018-09-20T13:55:10.376Z,4.5
2018-09-20T13:56:10.917Z,4.0
2018-09-20T13:57:10.762Z,4.3
2018-09-20T13:58:10.778Z,4.4
2018-09-20T13:59:10.896Z,4.5
2018-09-20T14:00:10.569Z,4.8
2018-09-20T14:02:23.280Z,4.2
2018-09-20T14:03:23.572Z,4.3
2018-09-20T14:04:23.854Z,4.3
2018-09-20T14:05:23.563Z,5.1
2018-09-20T14:06:23.576Z,4.2
2018-09-20T14:07:23.838Z,4.4
2018-09-20T14:08:23.574Z,4.2
2018-09-20T14:09:23.788Z,4.7
2018-09-20T14:10:23.362Z,4.5
2018-09-20T14:11:31.046Z,4.4
2018-09-20T14:12:23.790Z,4.8
2018-09-20T14:13:23.332Z,4.4
2018-09-20T14:14:23.631Z,4.6
2018-09-20T14:15:23.758Z,4.7
2018-09-20T14:16:23.563Z,4.3
2018-09-20T14:17:23.381Z,4.5
2018-09-20T14:18:23.789Z,4.6
2018-09-20T14:19:23.795Z,4.5
2018-09-20T14:20:23.370Z,4.3
2018-09-20T14:21:23.841Z,4.4
2018-09-20T14:22:23.520Z,4.8
2018-09-20T14:23:23.549Z,4.4
2018-09-20T14:24:27.760Z,4.5
2018-09-20T14:25:23.413Z,4.6
2018-09-20T14:26:23.939Z,4.3
2018-09-20T14:27:23.826Z,4.3
2018-09-20T14:34:57.010Z,4.7
2018-09-20T14:35:22.013Z,4.6
2018-09-20T14:36:23.017Z,4.8
2018-09-20T14:37:23.181Z,5.4
2018-09-20T14:38:23.313Z,4.5
2018-09-20T14:39:23.269Z,4.2